createdAt,value
2018-06-11T00:01:55.150Z,74.77
2018-06-11T00:04:25.237Z,75.61
2018-06-11T00:06:55.001Z,75.21
2018-06-11T00:09:24.957Z,74.94
2018-06-11T00:11:54.686Z,75.10
2018-06-11T00:14:24.460Z,75.19
2018-06-11T00:16:54.200Z,74.89
2018-06-11T00:19:23.986Z,74.69
2018-06-11T00:21:53.750Z,74.80
2018-06-11T00:24:23.477Z,74.50
2018-06-11T00:26:53.257Z,74.73
2018-06-11T00:29:22.982Z,74.83
2018-06-11T00:31:52.717Z,74.41
2018-06-11T00:34:22.481Z,74.95
2018-06-11T00:36:52.223Z,74.65
2018-06-11T00:39:22.006Z,75.50
2018-06-11T00:41:51.752Z,75.25
2018-06-11T00:44:21.529Z,75.66
2018-06-11T00:46:51.283Z,75.29
2018-06-11T00:49:21.101Z,74.94
2018-06-11T00:51:50.985Z,74.95
2018-06-11T00:54:20.722Z,74.93
2018-06-11T00:56:50.537Z,75.34
2018-06-11T00:59:20.260Z,75.27
2018-06-11T01:01:49.998Z,75.23
2018-06-11T01:04:19.757Z,75.10
2018-06-11T01:06:49.892Z,74.90
2018-06-11T01:09:19.757Z,75.00
2018-06-11T01:11:49.533Z,75.04
2018-06-11T01:14:19.298Z,75.53
2018-06-11T01:16:49.045Z,75.52
2018-06-11T01:19:18.837Z,75.60
2018-06-11T01:21:48.613Z,75.43
2018-06-11T01:24:18.337Z,75.80
2018-06-11T01:26:48.066Z,75.94
2018-06-11T01:29:17.837Z,76.21
2018-06-11T01:31:47.566Z,76.23
2018-06-11T01:34:17.325Z,76.12
2018-06-11T01:36:47.098Z,76.48
2018-06-11T01:39:16.835Z,76.56
2018-06-11T01:41:46.622Z,77.43
2018-06-11T01:44:16.698Z,76.99
2018-06-11T01:46:46.574Z,78.51
2018-06-11T01:49:16.314Z,78.08
2018-06-11T01:51:47.049Z,77.81
2018-06-11T01:54:16.828Z,79.64
2018-06-11T01:56:46.601Z,79.19
2018-06-11T01:59:16.361Z,80.93
2018-06-11T02:01:46.093Z,81.29
2018-06-11T02:04:15.889Z,80.44
2018-06-11T02:06:45.877Z,81.20
2018-06-11T02:09:15.649Z,82.14
2018-06-11T02:11:45.757Z,81.12
2018-06-11T02:14:15.567Z,82.17
2018-06-11T02:16:45.333Z,81.51
2018-06-11T02:19:15.062Z,81.52
2018-06-11T02:21:44.836Z,83.02
2018-06-11T02:24:14.585Z,82.76
2018-06-11T02:26:44.395Z,82.58
2018-06-11T02:29:14.136Z,83.43
2018-06-11T02:31:43.862Z,84.16
2018-06-11T02:34:13.647Z,84.17
2018-06-11T02:36:43.405Z,85.26
2018-06-11T02:39:13.127Z,85.72
2018-06-11T02:41:42.919Z,86.18
2018-06-11T02:44:12.662Z,85.91
2018-06-11T02:46:42.594Z,86.37
2018-06-11T02:49:12.317Z,86.63
2018-06-11T02:51:42.086Z,86.41
2018-06-11T02:54:11.835Z,86.56
2018-06-11T02:56:41.879Z,86.28
2018-06-11T02:59:11.671Z,86.40
2018-06-11T03:01:41.442Z,86.52
2018-06-11T03:04:11.535Z,86.29
2018-06-11T03:06:41.272Z,85.79
2018-06-11T03:09:11.349Z,85.70
2018-06-11T03:11:41.117Z,85.34
2018-06-11T03:14:10.862Z,85.36
2018-06-11T03:16:40.669Z,85.28
2018-06-11T03:19:10.693Z,85.55
2018-06-11T03:21:40.486Z,85.49
2018-06-11T03:24:10.230Z,84.99
2018-06-11T03:26:39.973Z,84.72
2018-06-11T03:29:09.737Z,84.57
2018-06-11T03:31:39.477Z,84.29
2018-06-11T03:34:09.270Z,83.83
2018-06-11T03:36:39.061Z,83.78
2018-06-11T03:39:09.813Z,83.38
2018-06-11T03:41:39.564Z,84.04
2018-06-11T03:44:09.350Z,84.61
2018-06-11T03:46:39.090Z,84.27
2018-06-11T03:49:08.821Z,84.33
2018-06-11T03:51:38.733Z,83.93
2018-06-11T03:54:08.516Z,83.54
2018-06-11T03:56:38.309Z,83.26
2018-06-11T03:59:08.028Z,83.13
2018-06-11T04:01:37.753Z,82.83
2018-06-11T04:04:07.553Z,82.94
2018-06-11T04:06:37.415Z,83.03
2018-06-11T04:09:09.141Z,82.37
2018-06-11T04:11:38.881Z,82.24
2018-06-11T04:14:08.610Z,81.92
2018-06-11T04:16:38.377Z,81.61
2018-06-11T04:19:08.118Z,82.56
2018-06-11T04:21:37.910Z,81.89
2018-06-11T04:24:07.638Z,81.89
2018-06-11T04:26:37.438Z,82.48
2018-06-11T04:29:07.186Z,82.68
2018-06-11T04:31:36.916Z,82.56
2018-06-11T04:34:06.784Z,82.63
2018-06-11T04:36:36.513Z,82.25
2018-06-11T04:39:08.505Z,82.36
2018-06-11T04:41:38.249Z,82.65
2018-06-11T04:44:07.998Z,82.42
2018-06-11T04:46:37.787Z,81.92
2018-06-11T04:49:07.626Z,81.75
2018-06-11T04:51:37.409Z,81.39
2018-06-11T04:54:07.163Z,82.28
2018-06-11T04:56:36.930Z,81.84
2018-06-11T04:59:06.716Z,81.59
2018-06-11T05:01:36.457Z,81.63
2018-06-11T05:04:06.528Z,81.44
2018-06-11T05:06:36.325Z,81.48
2018-06-11T05:09:07.303Z,82.56
2018-06-11T05:11:37.042Z,82.21
2018-06-11T05:14:07.189Z,82.22
2018-06-11T05:16:36.949Z,82.31
2018-06-11T05:19:06.693Z,82.32
2018-06-11T05:21:36.453Z,81.97
2018-06-11T05:24:06.201Z,82.32
2018-06-11T05:26:35.977Z,82.17
2018-06-11T05:29:05.758Z,81.96
2018-06-11T05:31:35.534Z,81.63
2018-06-11T05:34:05.451Z,81.60
2018-06-11T05:36:35.250Z,81.59
2018-06-11T05:39:07.130Z,82.04
2018-06-11T05:41:37.220Z,81.72
2018-06-11T05:44:07.018Z,81.96
2018-06-11T05:46:36.758Z,82.15
2018-06-11T05:49:06.566Z,82.41
2018-06-11T05:51:36.767Z,82.42
2018-06-11T05:54:06.812Z,82.35
2018-06-11T05:56:36.573Z,82.20
2018-06-11T05:59:06.429Z,82.22
2018-06-11T06:01:36.178Z,82.64
2018-06-11T06:04:05.947Z,82.43
2018-06-11T06:06:35.724Z,82.17
2018-06-11T06:09:07.160Z,82.84
2018-06-11T06:11:37.008Z,82.62
2018-06-11T06:14:06.776Z,82.60
2018-06-11T06:16:36.553Z,83.02
2018-06-11T06:19:06.374Z,82.18
2018-06-11T06:21:36.184Z,82.35
2018-06-11T06:24:05.949Z,82.35
2018-06-11T06:26:35.683Z,82.03
2018-06-11T06:29:05.497Z,82.36
2018-06-11T06:31:35.250Z,82.11
2018-06-11T06:34:05.373Z,81.69
2018-06-11T06:36:35.150Z,81.05
2018-06-11T06:39:06.950Z,80.61
2018-06-11T06:41:36.942Z,80.92
2018-06-11T06:44:06.743Z,80.58
2018-06-11T06:46:36.482Z,80.10
2018-06-11T06:49:06.251Z,79.28
2018-06-11T06:51:36.073Z,79.61
2018-06-11T06:54:05.900Z,79.34
2018-06-11T06:56:35.757Z,78.79
2018-06-11T06:59:05.563Z,78.47
2018-06-11T07:01:35.386Z,78.77
2018-06-11T07:04:05.207Z,78.22
2018-06-11T07:06:35.021Z,78.34
2018-06-11T07:09:06.971Z,77.84
2018-06-11T07:11:36.905Z,78.06
2018-06-11T07:14:06.761Z,77.24
2018-06-11T07:16:36.571Z,77.19
2018-06-11T07:19:06.501Z,76.89
2018-06-11T07:21:36.311Z,76.56
2018-06-11T07:24:06.134Z,76.41
2018-06-11T07:26:35.929Z,76.45
2018-06-11T07:29:05.786Z,76.55
2018-06-11T07:31:35.565Z,76.15
2018-06-11T07:34:05.318Z,75.80
2018-06-11T07:36:35.435Z,75.03
2018-06-11T07:39:06.961Z,75.37
2018-06-11T07:41:37.196Z,74.99
2018-06-11T07:44:06.997Z,74.16
2018-06-11T07:46:36.729Z,73.24
2018-06-11T07:49:06.543Z,73.19
2018-06-11T07:51:36.273Z,73.04
2018-06-11T07:54:06.497Z,72.97
2018-06-11T07:56:36.290Z,72.63
2018-06-11T07:59:06.066Z,72.60
2018-06-11T08:01:35.805Z,72.64
2018-06-11T08:04:05.660Z,72.88
2018-06-11T08:06:35.415Z,73.08
2018-06-11T08:09:07.265Z,73.23
2018-06-11T08:11:37.074Z,72.97
2018-06-11T08:14:06.844Z,72.32
2018-06-11T08:16:36.665Z,72.13
2018-06-11T08:19:06.405Z,71.78
2018-06-11T08:21:36.181Z,71.25
2018-06-11T08:24:05.970Z,70.80
2018-06-11T08:26:35.776Z,70.72
2018-06-11T08:29:05.704Z,70.09
2018-06-11T08:31:35.495Z,70.28
2018-06-11T08:34:05.378Z,69.17
2018-06-11T08:36:35.137Z,70.70
2018-06-11T08:39:06.871Z,70.50
2018-06-11T08:41:36.613Z,70.66
2018-06-11T08:44:06.461Z,70.45
2018-06-11T08:46:36.202Z,69.23
2018-06-11T08:49:06.105Z,69.84
2018-06-11T08:51:35.874Z,68.88
2018-06-11T08:54:05.643Z,69.09
2018-06-11T08:56:35.409Z,68.75
2018-06-11T08:59:05.586Z,68.45
2018-06-11T09:01:35.346Z,67.82
2018-06-11T09:04:05.180Z,68.29
2018-06-11T09:06:34.913Z,67.24
2018-06-11T09:09:06.341Z,66.94
2018-06-11T09:11:36.081Z,66.74
2018-06-11T09:14:06.299Z,66.68
2018-06-11T09:16:36.044Z,66.48
2018-06-11T09:19:05.803Z,66.56
2018-06-11T09:21:35.608Z,66.82
2018-06-11T09:24:05.366Z,66.61
2018-06-11T09:26:35.105Z,64.79
2018-06-11T09:29:04.893Z,65.22
2018-06-11T09:31:34.652Z,64.17
2018-06-11T09:34:04.496Z,64.20
2018-06-11T09:36:34.236Z,63.74
2018-06-11T09:41:32.735Z,63.95
2018-06-11T09:44:02.617Z,64.00
2018-06-11T09:46:32.579Z,63.74
2018-06-11T09:49:02.701Z,63.11
2018-06-11T09:51:32.489Z,63.45
2018-06-11T09:54:02.269Z,62.39
2018-06-11T09:56:32.009Z,62.67
2018-06-11T09:59:01.817Z,62.57
2018-06-11T10:01:31.558Z,61.94
2018-06-11T10:04:01.665Z,60.58
2018-06-11T10:06:31.445Z,59.15
2018-06-11T10:09:01.234Z,59.74
2018-06-11T10:11:30.969Z,61.05
2018-06-11T10:14:00.715Z,59.10
2018-06-11T10:16:30.485Z,57.54
2018-06-11T10:19:00.329Z,57.61
2018-06-11T10:21:30.061Z,56.75
2018-06-11T10:23:59.920Z,55.45
2018-06-11T10:26:29.954Z,56.43
2018-06-11T10:28:59.788Z,56.64
2018-06-11T10:31:29.522Z,56.97
2018-06-11T10:33:59.301Z,56.61
2018-06-11T10:36:29.034Z,56.61
2018-06-11T10:38:58.762Z,55.67
2018-06-11T10:41:28.530Z,55.33
2018-06-11T10:43:58.333Z,55.24
2018-06-11T10:46:28.064Z,55.79
2018-06-11T10:48:57.800Z,54.71
2018-06-11T10:51:27.589Z,54.20
2018-06-11T10:53:57.412Z,52.46
2018-06-11T10:56:27.152Z,52.80
2018-06-11T10:58:56.885Z,52.04
2018-06-11T11:01:26.682Z,52.94
2018-06-11T11:03:56.409Z,52.78
2018-06-11T11:06:26.121Z,52.85
2018-06-11T11:08:55.907Z,52.83
2018-06-11T11:11:25.649Z,52.69
2018-06-11T11:13:55.438Z,51.95
2018-06-11T11:16:25.175Z,52.19
2018-06-11T11:18:55.065Z,53.40
2018-06-11T11:21:24.838Z,54.05
2018-06-11T11:23:54.571Z,53.74
2018-06-11T11:26:24.566Z,54.06
2018-06-11T11:28:54.337Z,54.40
2018-06-11T11:31:24.075Z,51.71
2018-06-11T11:33:53.871Z,52.04
2018-06-11T11:36:23.626Z,51.31
2018-06-11T11:38:53.396Z,52.45
2018-06-11T11:41:23.136Z,51.87
2018-06-11T11:43:52.865Z,51.88
2018-06-11T11:46:22.685Z,52.06
2018-06-11T11:48:52.421Z,51.51
2018-06-11T11:51:22.187Z,51.52
2018-06-11T11:53:51.952Z,50.35
2018-06-11T11:56:21.729Z,49.40
2018-06-11T11:58:51.463Z,48.94
2018-06-11T12:01:21.205Z,48.97
2018-06-11T12:03:50.967Z,48.63
2018-06-11T12:06:20.722Z,48.96
2018-06-11T12:08:50.482Z,49.40
2018-06-11T12:11:20.213Z,48.38
2018-06-11T12:13:50.062Z,48.23
2018-06-11T12:16:19.981Z,47.29
2018-06-11T12:18:49.774Z,46.10
2018-06-11T12:21:19.500Z,45.64
2018-06-11T12:23:49.278Z,45.37
2018-06-11T12:26:19.042Z,44.84
2018-06-11T12:28:48.771Z,44.56
2018-06-11T12:31:18.579Z,44.14
2018-06-11T12:33:48.335Z,44.43
2018-06-11T12:36:18.130Z,43.62
2018-06-11T12:38:47.870Z,44.30
2018-06-11T12:41:18.555Z,44.30
2018-06-11T12:43:48.670Z,44.81
2018-06-11T12:46:18.465Z,44.04
2018-06-11T12:48:48.197Z,44.08
2018-06-11T12:51:17.969Z,44.35
2018-06-11T12:53:48.137Z,44.02
2018-06-11T12:56:17.888Z,44.04
2018-06-11T12:58:47.605Z,44.09
2018-06-11T13:01:17.378Z,44.74
2018-06-11T13:03:47.189Z,43.36
2018-06-11T13:06:16.945Z,43.86
2018-06-11T13:08:46.744Z,44.53
2018-06-11T13:11:16.495Z,43.81
2018-06-11T13:16:43.508Z,45.47
2018-06-11T13:19:13.389Z,45.12
2018-06-11T13:21:43.471Z,45.27
2018-06-11T13:24:13.329Z,45.07
2018-06-11T13:26:43.082Z,44.66
2018-06-11T13:29:12.825Z,45.41
2018-06-11T13:31:42.605Z,44.47
2018-06-11T13:34:12.382Z,43.42
2018-06-11T13:36:42.169Z,43.70
2018-06-11T13:39:11.901Z,41.87
2018-06-11T13:41:41.694Z,41.21
2018-06-11T13:44:11.477Z,42.32
2018-06-11T13:46:41.206Z,41.35
2018-06-11T13:49:10.981Z,41.23
2018-06-11T13:51:40.718Z,42.42
2018-06-11T13:54:10.470Z,41.12
2018-06-11T13:56:42.014Z,41.22
2018-06-11T13:59:11.800Z,41.75
2018-06-11T14:01:41.547Z,40.93
2018-06-11T14:04:11.346Z,41.79
2018-06-11T14:06:41.082Z,42.37
2018-06-11T14:09:10.842Z,41.37
2018-06-11T14:11:40.676Z,42.04
2018-06-11T14:14:10.538Z,42.20
2018-06-11T14:16:40.670Z,40.99
2018-06-11T14:19:10.469Z,40.36
2018-06-11T14:21:40.309Z,41.43
2018-06-11T14:24:10.157Z,40.25
2018-06-11T14:26:40.022Z,40.94
2018-06-11T14:29:09.800Z,41.96
2018-06-11T14:31:39.743Z,40.81
2018-06-11T14:34:09.580Z,40.08
2018-06-11T14:36:39.510Z,39.95
2018-06-11T14:39:10.325Z,41.26
2018-06-11T14:41:40.244Z,41.46
2018-06-11T14:44:10.101Z,42.93
2018-06-11T14:46:39.930Z,42.67
2018-06-11T14:49:09.809Z,42.92
2018-06-11T14:51:39.661Z,41.94
2018-06-11T14:54:09.947Z,42.16
2018-06-11T14:56:39.802Z,41.14
2018-06-11T14:59:09.678Z,40.52
2018-06-11T15:01:39.472Z,40.04
2018-06-11T15:04:09.371Z,40.15
2018-06-11T15:06:39.157Z,40.38
2018-06-11T15:09:09.392Z,39.52
2018-06-11T15:11:39.245Z,39.14
2018-06-11T15:14:09.049Z,39.17
2018-06-11T15:16:38.878Z,39.15
2018-06-11T15:19:08.644Z,39.91
2018-06-11T15:21:38.449Z,39.74
2018-06-11T15:24:08.686Z,39.73
2018-06-11T15:26:38.948Z,40.52
2018-06-11T15:29:08.797Z,40.14
2018-06-11T15:31:38.922Z,39.92
2018-06-11T15:34:08.733Z,39.93
2018-06-11T15:36:38.593Z,39.87
2018-06-11T15:39:09.189Z,40.18
2018-06-11T15:41:39.007Z,39.78
2018-06-11T15:44:08.777Z,39.90
2018-06-11T15:46:38.599Z,40.49
2018-06-11T15:49:08.350Z,40.28
2018-06-11T15:51:38.228Z,40.38
2018-06-11T15:54:08.310Z,39.34
2018-06-11T15:56:38.090Z,40.54
2018-06-11T15:59:07.905Z,40.08
2018-06-11T16:01:37.804Z,39.75
2018-06-11T16:04:08.048Z,39.42
2018-06-11T16:06:38.886Z,39.65
2018-06-11T16:09:09.372Z,39.88
2018-06-11T16:11:39.141Z,39.79
2018-06-11T16:14:09.159Z,39.93
2018-06-11T16:16:38.945Z,39.84
2018-06-11T16:19:08.857Z,40.62
2018-06-11T16:21:38.969Z,39.94
2018-06-11T16:24:09.848Z,40.74
2018-06-11T16:26:39.698Z,40.40
2018-06-11T16:29:09.535Z,40.94
2018-06-11T16:31:39.367Z,40.89
2018-06-11T16:34:09.197Z,41.57
2018-06-11T16:36:38.993Z,42.12
2018-06-11T16:39:09.794Z,41.97
2018-06-11T16:41:39.662Z,41.61
2018-06-11T16:44:09.580Z,41.68
2018-06-11T16:46:39.381Z,42.09
2018-06-11T16:49:09.283Z,42.10
2018-06-11T16:51:39.240Z,42.18
2018-06-11T16:54:09.660Z,41.77
2018-06-11T16:56:39.546Z,41.71
2018-06-11T16:59:09.400Z,42.26
2018-06-11T17:01:39.269Z,42.10
2018-06-11T17:04:09.069Z,42.36
2018-06-11T17:06:39.018Z,41.90
2018-06-11T17:09:09.695Z,42.34
2018-06-11T17:11:39.582Z,43.38
2018-06-11T17:14:09.446Z,43.14
2018-06-11T17:16:39.276Z,43.26
2018-06-11T17:19:09.070Z,42.74
2018-06-11T17:21:38.921Z,43.44
2018-06-11T17:24:08.767Z,43.46
2018-06-11T17:26:38.628Z,44.40
2018-06-11T17:29:08.425Z,44.32
2018-06-11T17:31:38.283Z,44.21
2018-06-11T17:34:08.334Z,44.75
2018-06-11T17:36:38.638Z,45.09
2018-06-11T17:39:09.165Z,44.89
2018-06-11T17:41:39.074Z,45.10
2018-06-11T17:44:08.927Z,45.35
2018-06-11T17:46:38.934Z,45.22
2018-06-11T17:49:08.761Z,45.72
2018-06-11T17:51:38.670Z,45.54
2018-06-11T17:54:08.570Z,45.93
2018-06-11T17:56:38.446Z,45.92
2018-06-11T17:59:08.307Z,46.34
2018-06-11T18:01:38.458Z,46.61
2018-06-11T18:04:08.377Z,46.12
2018-06-11T18:06:38.472Z,46.96
2018-06-11T18:09:09.905Z,47.25
2018-06-11T18:11:39.802Z,46.78
2018-06-11T18:14:09.610Z,47.40
2018-06-11T18:16:39.453Z,47.16
2018-06-11T18:19:09.438Z,47.29
2018-06-11T18:21:39.298Z,47.96
2018-06-11T18:24:09.104Z,47.57
2018-06-11T18:26:39.117Z,48.05
2018-06-11T18:29:08.897Z,48.77
2018-06-11T18:31:38.676Z,48.68
2018-06-11T18:34:08.586Z,49.49
2018-06-11T18:36:39.429Z,49.62
2018-06-11T18:39:10.023Z,50.57
2018-06-11T18:41:39.845Z,50.69
2018-06-11T18:44:09.702Z,50.79
2018-06-11T18:46:39.464Z,51.06
2018-06-11T18:49:09.278Z,51.39
2018-06-11T18:51:39.091Z,51.32
2018-06-11T18:54:09.235Z,51.02
2018-06-11T18:56:39.034Z,51.51
2018-06-11T18:59:08.871Z,51.53
2018-06-11T19:01:38.646Z,51.73
2018-06-11T19:04:08.452Z,51.52
2018-06-11T19:06:38.255Z,51.34
2018-06-11T19:09:09.328Z,51.88
2018-06-11T19:11:39.097Z,51.57
2018-06-11T19:14:08.802Z,51.62
2018-06-11T19:16:38.470Z,52.23
2018-06-11T19:19:08.280Z,51.79
2018-06-11T19:21:38.081Z,52.35
2018-06-11T19:24:08.127Z,53.05
2018-06-11T19:26:38.016Z,53.02
2018-06-11T19:29:07.793Z,52.92
2018-06-11T19:31:37.634Z,53.02
2018-06-11T19:34:07.538Z,53.15
2018-06-11T19:36:37.343Z,53.54
2018-06-11T19:39:08.056Z,53.61
2018-06-11T19:41:37.885Z,53.74
2018-06-11T19:44:07.687Z,53.47
2018-06-11T19:46:37.550Z,53.61
2018-06-11T19:49:07.345Z,54.01
2018-06-11T19:51:37.211Z,54.03
2018-06-11T19:54:07.005Z,54.50
2018-06-11T19:56:36.852Z,54.56
2018-06-11T19:59:06.728Z,54.84
2018-06-11T20:01:36.584Z,55.33
2018-06-11T20:04:06.479Z,55.11
2018-06-11T20:06:36.331Z,55.54
2018-06-11T20:09:08.725Z,56.21
2018-06-11T20:11:38.841Z,57.91
2018-06-11T20:14:08.661Z,58.33
2018-06-11T20:16:38.453Z,58.98
2018-06-11T20:19:08.383Z,59.03
2018-06-11T20:21:38.173Z,59.20
2018-06-11T20:24:07.953Z,59.56
2018-06-11T20:26:37.769Z,59.78
2018-06-11T20:29:07.550Z,59.81
2018-06-11T20:31:37.425Z,60.32
2018-06-11T20:34:07.262Z,60.72
2018-06-11T20:36:37.982Z,60.76
2018-06-11T20:39:09.051Z,61.22
2018-06-11T20:41:38.893Z,60.59
2018-06-11T20:44:08.693Z,60.42
2018-06-11T20:46:39.426Z,60.30
2018-06-11T20:49:09.454Z,60.20
2018-06-11T20:51:39.828Z,60.46
2018-06-11T20:54:10.004Z,60.59
2018-06-11T20:56:39.853Z,61.18
2018-06-11T20:59:09.605Z,61.21
2018-06-11T21:01:39.435Z,61.36
2018-06-11T21:04:09.223Z,62.72
2018-06-11T21:06:38.991Z,62.63
2018-06-11T21:09:09.631Z,62.46
2018-06-11T21:11:39.385Z,62.11
2018-06-11T21:14:09.169Z,62.07
2018-06-11T21:16:38.907Z,61.50
2018-06-11T21:19:08.699Z,61.83
2018-06-11T21:21:38.444Z,61.32
2018-06-11T21:24:08.315Z,61.45
2018-06-11T21:26:38.258Z,61.85
2018-06-11T21:29:08.041Z,62.46
2018-06-11T21:31:37.806Z,62.33
2018-06-11T21:34:07.565Z,62.50
2018-06-11T21:36:37.355Z,62.92
2018-06-11T21:39:09.165Z,62.54
2018-06-11T21:41:38.981Z,62.92
2018-06-11T21:44:08.714Z,62.80
2018-06-11T21:46:38.546Z,63.40
2018-06-11T21:49:08.287Z,63.23
2018-06-11T21:51:38.098Z,63.40
2018-06-11T21:54:07.289Z,63.43
2018-06-11T21:56:37.042Z,63.66
2018-06-11T21:59:06.889Z,63.75
2018-06-11T22:01:36.689Z,63.52
2018-06-11T22:04:06.603Z,63.54
2018-06-11T22:06:36.525Z,63.51
2018-06-11T22:09:09.162Z,63.61
2018-06-11T22:11:39.054Z,63.83
2018-06-11T22:14:08.828Z,64.16
2018-06-11T22:16:38.632Z,64.36
2018-06-11T22:19:08.378Z,64.47
2018-06-11T22:21:38.135Z,64.35
2018-06-11T22:24:20.980Z,64.26
2018-06-11T22:26:50.751Z,64.01
2018-06-11T22:29:20.537Z,63.98
2018-06-11T22:31:50.269Z,64.19
2018-06-11T22:34:20.018Z,64.30
2018-06-11T22:52:34.936Z,63.67
2018-06-11T22:55:05.123Z,64.19
2018-06-11T22:57:35.210Z,64.31
2018-06-11T23:01:18.118Z,65.23
2018-06-11T23:03:47.868Z,65.19
2018-06-11T23:06:17.693Z,65.55
2018-06-11T23:08:47.445Z,65.44
2018-06-11T23:11:17.242Z,65.68
2018-06-11T23:13:46.984Z,66.10
2018-06-11T23:16:17.204Z,66.21
2018-06-11T23:18:46.962Z,65.98
2018-06-11T23:21:16.717Z,66.33
2018-06-11T23:23:46.566Z,66.53
2018-06-11T23:26:16.325Z,66.51
2018-06-11T23:28:46.109Z,66.48
2018-06-11T23:31:15.889Z,66.67
2018-06-11T23:33:45.951Z,66.92
2018-06-11T23:36:15.721Z,66.66
2018-06-11T23:38:45.478Z,67.12
2018-06-11T23:41:15.269Z,66.92
2018-06-11T23:43:45.014Z,67.33
2018-06-11T23:46:14.758Z,67.36
2018-06-11T23:48:44.538Z,66.93
2018-06-11T23:51:14.285Z,67.26
2018-06-11T23:53:44.042Z,67.54
2018-06-11T23:56:13.830Z,67.83
2018-06-11T23:58:43.573Z,67.91
